createdAt,value
2023-12-27T00:01:32.931Z,4.20
2023-12-27T00:06:35.976Z,3.67
2023-12-27T00:11:37.657Z,3.58
2023-12-27T00:16:39.307Z,4.25
2023-12-27T00:21:42.200Z,4.05
2023-12-27T00:26:43.781Z,3.40
2023-12-27T00:31:45.348Z,3.40
2023-12-27T00:36:48.228Z,3.20
2023-12-27T00:41:49.833Z,3.53
2023-12-27T00:46:51.681Z,3.33
2023-12-27T00:51:54.675Z,3.10
2023-12-27T00:56:56.333Z,3.05
2023-12-27T01:01:57.941Z,3.35
2023-12-27T01:07:00.888Z,3.08
2023-12-27T01:12:02.632Z,3.45
2023-12-27T01:17:04.533Z,3.45
2023-12-27T01:22:07.445Z,3.35
2023-12-27T01:27:10.065Z,3.83
2023-12-27T01:32:11.684Z,3.83
2023-12-27T01:37:14.589Z,2.95
2023-12-27T01:42:16.319Z,2.70
2023-12-27T01:47:17.939Z,2.53
2023-12-27T01:52:21.027Z,2.72
2023-12-27T01:57:22.763Z,4.00
2023-12-27T02:02:24.954Z,2.53
2023-12-27T02:07:30.881Z,2.50
2023-12-27T02:12:33.180Z,2.53
2023-12-27T02:17:35.349Z,2.15
2023-12-27T02:22:39.998Z,2.28
2023-12-27T02:27:42.994Z,2.00
2023-12-27T02:32:45.820Z,2.10
2023-12-27T02:37:47.712Z,1.50
2023-12-27T02:42:50.892Z,2.08
2023-12-27T02:47:52.663Z,3.70
2023-12-27T02:52:54.333Z,3.80
2023-12-27T02:57:57.473Z,3.70
2023-12-27T03:02:59.108Z,3.92
2023-12-27T03:08:00.917Z,4.30
2023-12-27T03:13:04.031Z,4.00
2023-12-27T03:18:05.777Z,3.92
2023-12-27T03:23:07.474Z,4.50
2023-12-27T03:28:10.402Z,4.43
2023-12-27T03:33:12.216Z,4.40
2023-12-27T03:38:13.957Z,4.05
2023-12-27T03:43:16.995Z,4.35
2023-12-27T03:48:18.768Z,4.57
2023-12-27T03:53:20.434Z,4.10
2023-12-27T03:58:23.380Z,3.75
2023-12-27T04:03:25.015Z,3.65
2023-12-27T04:08:26.730Z,3.85
2023-12-27T04:13:29.600Z,4.10
2023-12-27T04:18:31.385Z,4.68
2023-12-27T04:23:33.099Z,4.13
2023-12-27T04:28:36.092Z,3.83
2023-12-27T04:33:37.722Z,6.47
2023-12-27T04:38:39.332Z,5.25
2023-12-27T04:43:42.242Z,4.93
2023-12-27T04:48:43.943Z,4.78
2023-12-27T04:53:45.663Z,4.80
2023-12-27T04:58:48.626Z,6.72
2023-12-27T05:03:50.236Z,4.70
2023-12-27T05:08:51.934Z,4.60
2023-12-27T05:13:54.876Z,4.55
2023-12-27T05:18:56.632Z,5.50
2023-12-27T05:23:58.395Z,6.78
2023-12-27T05:29:01.342Z,6.93
2023-12-27T05:34:03.073Z,7.30
2023-12-27T05:39:04.939Z,6.70
2023-12-27T05:44:07.882Z,6.60
2023-12-27T05:49:09.554Z,7.70
2023-12-27T05:54:11.206Z,7.57
2023-12-27T05:59:14.164Z,6.60
2023-12-27T06:04:15.812Z,7.95
2023-12-27T06:09:17.463Z,6.97
2023-12-27T06:14:21.473Z,6.97
2023-12-27T06:19:23.198Z,6.63
2023-12-27T06:24:25.260Z,7.68
2023-12-27T06:29:28.190Z,7.63
2023-12-27T06:34:32.995Z,8.73
2023-12-27T06:39:34.743Z,7.22
2023-12-27T06:44:37.889Z,8.20
2023-12-27T06:49:39.698Z,6.88
2023-12-27T06:54:41.399Z,7.70
2023-12-27T06:59:44.431Z,7.70
2023-12-27T07:04:46.065Z,6.95
2023-12-27T07:09:47.817Z,8.52
2023-12-27T07:14:50.873Z,8.20
2023-12-27T07:19:52.561Z,8.75
2023-12-27T07:24:54.102Z,10.00
2023-12-27T07:29:57.241Z,9.40
2023-12-27T07:34:58.923Z,10.27
2023-12-27T07:40:00.677Z,10.00
2023-12-27T07:45:05.065Z,9.98
2023-12-27T07:50:07.715Z,9.52
2023-12-27T07:55:09.592Z,9.57
2023-12-27T08:00:14.042Z,9.57
2023-12-27T08:05:15.704Z,9.73
2023-12-27T08:10:17.421Z,8.68
2023-12-27T08:15:20.356Z,8.02
2023-12-27T08:20:25.055Z,8.50
2023-12-27T08:25:27.106Z,12.82
2023-12-27T08:30:30.110Z,6.50
2023-12-27T08:35:31.788Z,5.57
2023-12-27T08:40:33.459Z,6.57
2023-12-27T08:45:36.455Z,5.32
2023-12-27T08:50:38.022Z,4.93
2023-12-27T08:55:39.589Z,4.20
2023-12-27T09:00:42.656Z,4.88
2023-12-27T09:05:44.316Z,4.32
2023-12-27T09:10:45.935Z,4.22
2023-12-27T09:15:49.049Z,3.58
2023-12-27T09:20:50.622Z,4.13
2023-12-27T09:25:52.230Z,3.72
2023-12-27T09:30:55.315Z,4.07
2023-12-27T09:35:57.067Z,4.13
2023-12-27T09:40:58.720Z,4.60
2023-12-27T09:46:04.094Z,3.78
2023-12-27T09:51:06.097Z,4.00
2023-12-27T09:56:08.335Z,4.72
2023-12-27T10:01:11.711Z,4.32
2023-12-27T10:06:32.143Z,4.95
2023-12-27T10:11:35.142Z,5.82
2023-12-27T10:16:38.101Z,5.88
2023-12-27T10:21:41.573Z,6.20
2023-12-27T10:26:43.275Z,5.53
2023-12-27T10:31:48.232Z,6.50
2023-12-27T10:36:51.085Z,6.45
2023-12-27T10:41:53.331Z,7.13
2023-12-27T10:46:57.928Z,7.03
2023-12-27T10:52:00.932Z,6.03
2023-12-27T10:57:04.894Z,5.68
2023-12-27T11:02:09.325Z,5.97
2023-12-27T11:07:12.543Z,6.32
2023-12-27T11:12:18.571Z,5.95
2023-12-27T11:17:25.437Z,5.82
2023-12-27T11:22:27.114Z,5.33
2023-12-27T11:27:31.129Z,5.70
2023-12-27T11:32:36.369Z,5.40
2023-12-27T11:37:40.738Z,5.57
2023-12-27T11:42:42.363Z,5.50
2023-12-27T11:47:45.421Z,5.63
2023-12-27T11:52:53.324Z,4.38
2023-12-27T11:58:01.283Z,4.38
2023-12-27T12:03:15.161Z,4.65
2023-12-27T12:08:26.413Z,5.10
2023-12-27T12:13:28.073Z,5.18
2023-12-27T12:18:33.659Z,4.90
2023-12-27T12:23:35.513Z,3.42
2023-12-27T12:28:37.046Z,3.85
2023-12-27T12:33:39.984Z,3.50
2023-12-27T12:38:41.699Z,4.85
2023-12-27T12:43:43.350Z,3.17
2023-12-27T12:48:46.613Z,2.85
2023-12-27T12:53:48.456Z,2.90
2023-12-27T12:58:50.234Z,2.90
2023-12-27T13:03:53.122Z,2.92
2023-12-27T13:08:54.755Z,3.85
2023-12-27T13:13:56.289Z,3.35
2023-12-27T13:18:59.415Z,3.00
2023-12-27T13:24:01.120Z,2.85
2023-12-27T13:29:02.654Z,3.50
2023-12-27T13:34:05.643Z,3.08
2023-12-27T13:39:08.240Z,2.58
2023-12-27T13:44:09.899Z,2.65
2023-12-27T13:49:12.959Z,2.47
2023-12-27T13:54:24.324Z,3.08
2023-12-27T13:59:30.518Z,3.22
2023-12-27T14:04:33.574Z,2.90
2023-12-27T14:09:35.464Z,3.47
2023-12-27T14:14:37.055Z,3.75
2023-12-27T14:19:40.065Z,3.67
2023-12-27T14:24:41.677Z,6.43
2023-12-27T14:29:43.277Z,4.32
2023-12-27T14:34:46.216Z,4.90
2023-12-27T14:39:47.968Z,5.47
2023-12-27T14:44:49.680Z,4.38
2023-12-27T14:49:52.626Z,5.10
2023-12-27T14:54:54.251Z,4.28
2023-12-27T14:59:55.797Z,7.72
2023-12-27T15:04:58.799Z,5.22
2023-12-27T15:10:00.805Z,5.80
2023-12-27T15:15:03.984Z,4.47
2023-12-27T15:20:09.355Z,5.80
2023-12-27T15:25:11.378Z,5.93
2023-12-27T15:30:13.676Z,5.18
2023-12-27T15:35:16.749Z,5.10
2023-12-27T15:40:18.327Z,5.93
2023-12-27T15:45:19.873Z,14.50
2023-12-27T15:50:22.740Z,11.77
2023-12-27T15:55:24.248Z,11.65
2023-12-27T16:00:25.875Z,11.40
2023-12-27T16:05:28.955Z,11.25
2023-12-27T16:10:30.515Z,4.13
2023-12-27T16:15:33.947Z,4.90
2023-12-27T16:20:40.319Z,4.55
2023-12-27T16:25:41.956Z,5.18
2023-12-27T16:30:43.670Z,4.25
2023-12-27T16:35:46.498Z,4.63
2023-12-27T16:40:48.075Z,4.72
2023-12-27T16:45:49.807Z,4.78
2023-12-27T16:50:52.960Z,5.00
2023-12-27T16:55:54.639Z,5.18
2023-12-27T17:00:56.211Z,5.47
2023-12-27T17:06:00.112Z,5.18
2023-12-27T17:11:01.704Z,4.38
2023-12-27T17:16:03.467Z,5.88
2023-12-27T17:21:06.501Z,5.55
2023-12-27T17:26:08.056Z,5.60
2023-12-27T17:31:09.667Z,5.35
2023-12-27T17:36:12.671Z,5.47
2023-12-27T17:41:15.201Z,4.43
2023-12-27T17:46:16.950Z,5.03
2023-12-27T17:51:19.846Z,10.20
2023-12-27T17:56:21.451Z,4.72
2023-12-27T18:01:22.949Z,4.40
2023-12-27T18:06:25.999Z,5.05
2023-12-27T18:11:27.702Z,4.95
2023-12-27T18:16:29.218Z,4.45
2023-12-27T18:21:32.135Z,7.18
2023-12-27T18:26:39.445Z,5.20
2023-12-27T18:31:44.012Z,4.95
2023-12-27T18:36:47.110Z,6.28
2023-12-27T18:41:48.710Z,4.50
2023-12-27T18:46:50.317Z,4.35
2023-12-27T18:51:53.390Z,5.68
2023-12-27T18:56:54.945Z,5.63
2023-12-27T19:01:56.459Z,5.13
2023-12-27T19:06:59.445Z,4.88
2023-12-27T19:12:01.038Z,6.32
2023-12-27T19:17:02.537Z,5.15
2023-12-27T19:22:05.484Z,5.70
2023-12-27T19:27:07.146Z,7.20
2023-12-27T19:32:08.643Z,7.25
2023-12-27T19:37:12.589Z,6.00
2023-12-27T19:42:14.154Z,5.07
2023-12-27T19:47:15.699Z,5.60
2023-12-27T19:52:18.633Z,4.35
2023-12-27T19:57:20.193Z,4.85
2023-12-27T20:02:21.792Z,4.55
2023-12-27T20:07:25.683Z,5.00
2023-12-27T20:12:27.437Z,5.15
2023-12-27T20:17:29.014Z,5.95
2023-12-27T20:22:31.948Z,5.55
2023-12-27T20:27:33.586Z,7.57
2023-12-27T20:32:35.749Z,6.03
2023-12-27T20:37:39.727Z,6.10
2023-12-27T20:42:41.412Z,7.47
2023-12-27T20:47:43.102Z,6.43
2023-12-27T20:52:46.103Z,5.70
2023-12-27T20:57:47.932Z,7.53
2023-12-27T21:02:49.557Z,5.82
2023-12-27T21:07:52.376Z,4.90
2023-12-27T21:12:53.937Z,5.30
2023-12-27T21:17:55.571Z,5.90
2023-12-27T21:22:58.599Z,5.55
2023-12-27T21:28:00.333Z,8.20
2023-12-27T21:33:02.238Z,4.20
2023-12-27T21:38:05.582Z,3.80
2023-12-27T21:43:07.129Z,3.78
2023-12-27T21:48:08.886Z,6.90
2023-12-27T21:53:14.778Z,7.10
2023-12-27T21:58:16.357Z,4.40
2023-12-27T22:03:17.917Z,4.20
2023-12-27T22:08:20.988Z,4.70
2023-12-27T22:13:22.686Z,5.32
2023-12-27T22:18:24.383Z,5.82
2023-12-27T22:23:28.902Z,5.72
2023-12-27T22:28:30.492Z,6.22
2023-12-27T22:33:32.196Z,6.03
2023-12-27T22:38:35.810Z,6.70
2023-12-27T22:43:37.447Z,6.65
2023-12-27T22:48:39.146Z,6.78
2023-12-27T22:53:42.265Z,6.45
2023-12-27T22:58:43.912Z,6.68
2023-12-27T23:03:45.512Z,6.25
2023-12-27T23:08:48.519Z,6.18
2023-12-27T23:13:50.134Z,6.32
2023-12-27T23:18:52.002Z,5.07
2023-12-27T23:23:54.976Z,5.57
2023-12-27T23:28:56.556Z,6.70
2023-12-27T23:33:58.272Z,6.40
2023-12-27T23:39:01.406Z,7.13
2023-12-27T23:44:03.999Z,6.95
2023-12-27T23:49:05.697Z,6.20
2023-12-27T23:54:08.962Z,6.28
2023-12-27T23:59:10.599Z,6.30
